sensor_id;sensor_type;location;lat;lon;timestamp;P1;durP1;ratioP1;P2;durP2;ratioP2
21657;SDS011;10990;48.174;9.782;2023-01-29T00:00:17;22.70;;;12.03;;
21657;SDS011;10990;48.174;9.782;2023-01-29T00:02:45;23.90;;;11.70;;
21657;SDS011;10990;48.174;9.782;2023-01-29T00:05:13;24.63;;;11.63;;
21657;SDS011;10990;48.174;9.782;2023-01-29T00:07:40;23.97;;;11.90;;
21657;SDS011;10990;48.174;9.782;2023-01-29T00:10:08;20.07;;;11.70;;
21657;SDS011;10990;48.174;9.782;2023-01-29T00:12:36;25.07;;;11.87;;
21657;SDS011;10990;48.174;9.782;2023-01-29T00:15:03;23.33;;;12.07;;
21657;SDS011;10990;48.174;9.782;2023-01-29T00:17:30;23.47;;;11.73;;
21657;SDS011;10990;48.174;9.782;2023-01-29T00:19:57;22.23;;;11.47;;
21657;SDS011;10990;48.174;9.782;2023-01-29T00:22:25;19.43;;;10.83;;
21657;SDS011;10990;48.174;9.782;2023-01-29T00:24:51;21.33;;;11.40;;
21657;SDS011;10990;48.174;9.782;2023-01-29T00:27:18;24.77;;;11.97;;
21657;SDS011;10990;48.174;9.782;2023-01-29T00:29:46;19.40;;;11.00;;
21657;SDS011;10990;48.174;9.782;2023-01-29T00:32:33;20.03;;;11.27;;
21657;SDS011;10990;48.174;9.782;2023-01-29T00:35:00;22.50;;;11.70;;
21657;SDS011;10990;48.174;9.782;2023-01-29T00:37:28;23.23;;;11.57;;
21657;SDS011;10990;48.174;9.782;2023-01-29T00:39:55;20.27;;;11.23;;
21657;SDS011;10990;48.174;9.782;2023-01-29T00:42:22;21.90;;;11.17;;
21657;SDS011;10990;48.174;9.782;2023-01-29T00:45:09;22.00;;;11.10;;
21657;SDS011;10990;48.174;9.782;2023-01-29T00:47:36;18.83;;;10.53;;
21657;SDS011;10990;48.174;9.782;2023-01-29T00:50:04;20.03;;;11.17;;
21657;SDS011;10990;48.174;9.782;2023-01-29T00:52:34;20.73;;;10.33;;
21657;SDS011;10990;48.174;9.782;2023-01-29T00:55:01;19.00;;;10.50;;
21657;SDS011;10990;48.174;9.782;2023-01-29T00:57:30;17.87;;;10.20;;
21657;SDS011;10990;48.174;9.782;2023-01-29T00:59:58;20.37;;;11.10;;
21657;SDS011;10990;48.174;9.782;2023-01-29T01:02:25;18.57;;;10.47;;
21657;SDS011;10990;48.174;9.782;2023-01-29T01:05:18;18.77;;;10.00;;
21657;SDS011;10990;48.174;9.782;2023-01-29T01:07:47;16.70;;;9.40;;
21657;SDS011;10990;48.174;9.782;2023-01-29T01:10:15;18.03;;;9.50;;
21657;SDS011;10990;48.174;9.782;2023-01-29T01:12:45;15.93;;;9.00;;
21657;SDS011;10990;48.174;9.782;2023-01-29T01:15:12;17.30;;;9.47;;
21657;SDS011;10990;48.174;9.782;2023-01-29T01:17:39;16.73;;;8.67;;
21657;SDS011;10990;48.174;9.782;2023-01-29T01:20:07;16.17;;;8.83;;
21657;SDS011;10990;48.174;9.782;2023-01-29T01:22:35;16.47;;;9.40;;
21657;SDS011;10990;48.174;9.782;2023-01-29T01:25:03;16.97;;;9.03;;
21657;SDS011;10990;48.174;9.782;2023-01-29T01:27:30;16.10;;;8.63;;
21657;SDS011;10990;48.174;9.782;2023-01-29T01:29:59;15.53;;;8.70;;
21657;SDS011;10990;48.174;9.782;2023-01-29T01:32:25;14.60;;;7.90;;
21657;SDS011;10990;48.174;9.782;2023-01-29T01:34:52;14.30;;;8.43;;
21657;SDS011;10990;48.174;9.782;2023-01-29T01:37:19;14.30;;;8.27;;
21657;SDS011;10990;48.174;9.782;2023-01-29T01:39:46;13.63;;;7.97;;
21657;SDS011;10990;48.174;9.782;2023-01-29T01:42:16;15.03;;;8.60;;
21657;SDS011;10990;48.174;9.782;2023-01-29T01:44:53;15.27;;;8.70;;
21657;SDS011;10990;48.174;9.782;2023-01-29T01:47:23;16.67;;;8.73;;
21657;SDS011;10990;48.174;9.782;2023-01-29T01:49:55;14.33;;;7.90;;
21657;SDS011;10990;48.174;9.782;2023-01-29T01:52:26;16.17;;;9.10;;
21657;SDS011;10990;48.174;9.782;2023-01-29T01:54:54;16.10;;;8.80;;
21657;SDS011;10990;48.174;9.782;2023-01-29T01:57:22;17.83;;;8.53;;
21657;SDS011;10990;48.174;9.782;2023-01-29T01:59:52;14.10;;;8.47;;
21657;SDS011;10990;48.174;9.782;2023-01-29T02:02:23;16.33;;;8.77;;
21657;SDS011;10990;48.174;9.782;2023-01-29T02:05:08;16.43;;;9.10;;
21657;SDS011;10990;48.174;9.782;2023-01-29T02:07:54;16.20;;;9.17;;
21657;SDS011;10990;48.174;9.782;2023-01-29T02:10:41;14.13;;;8.60;;
21657;SDS011;10990;48.174;9.782;2023-01-29T02:13:13;18.60;;;10.23;;
21657;SDS011;10990;48.174;9.782;2023-01-29T02:15:42;16.60;;;9.63;;
21657;SDS011;10990;48.174;9.782;2023-01-29T02:18:11;19.17;;;9.80;;
21657;SDS011;10990;48.174;9.782;2023-01-29T02:20:39;18.10;;;9.60;;
21657;SDS011;10990;48.174;9.782;2023-01-29T02:23:19;16.00;;;9.17;;
21657;SDS011;10990;48.174;9.782;2023-01-29T02:26:01;17.87;;;9.63;;
21657;SDS011;10990;48.174;9.782;2023-01-29T02:28:42;17.37;;;9.63;;
21657;SDS011;10990;48.174;9.782;2023-01-29T02:31:15;15.63;;;8.87;;
21657;SDS011;10990;48.174;9.782;2023-01-29T02:33:52;17.93;;;9.67;;
21657;SDS011;10990;48.174;9.782;2023-01-29T02:36:27;17.17;;;9.40;;
21657;SDS011;10990;48.174;9.782;2023-01-29T02:39:03;16.57;;;9.20;;
21657;SDS011;10990;48.174;9.782;2023-01-29T02:41:39;17.30;;;9.13;;
21657;SDS011;10990;48.174;9.782;2023-01-29T02:44:14;16.87;;;9.17;;
21657;SDS011;10990;48.174;9.782;2023-01-29T02:46:48;20.00;;;10.03;;
21657;SDS011;10990;48.174;9.782;2023-01-29T02:49:23;22.10;;;10.37;;
21657;SDS011;10990;48.174;9.782;2023-01-29T02:51:58;16.80;;;9.50;;
21657;SDS011;10990;48.174;9.782;2023-01-29T02:54:32;17.90;;;10.33;;
21657;SDS011;10990;48.174;9.782;2023-01-29T02:57:07;19.47;;;10.83;;
21657;SDS011;10990;48.174;9.782;2023-01-29T02:59:44;17.73;;;9.93;;
21657;SDS011;10990;48.174;9.782;2023-01-29T03:02:17;18.20;;;9.80;;
21657;SDS011;10990;48.174;9.782;2023-01-29T03:04:54;17.73;;;10.03;;
21657;SDS011;10990;48.174;9.782;2023-01-29T03:07:26;19.37;;;9.97;;
21657;SDS011;10990;48.174;9.782;2023-01-29T03:10:11;16.67;;;9.23;;
21657;SDS011;10990;48.174;9.782;2023-01-29T03:12:42;18.33;;;9.50;;
21657;SDS011;10990;48.174;9.782;2023-01-29T03:15:15;19.53;;;9.90;;
21657;SDS011;10990;48.174;9.782;2023-01-29T03:18:05;18.13;;;9.00;;
21657;SDS011;10990;48.174;9.782;2023-01-29T03:20:36;19.13;;;9.37;;
21657;SDS011;10990;48.174;9.782;2023-01-29T03:23:13;20.47;;;10.03;;
21657;SDS011;10990;48.174;9.782;2023-01-29T03:25:52;15.57;;;8.73;;
21657;SDS011;10990;48.174;9.782;2023-01-29T03:28:39;15.67;;;9.13;;
21657;SDS011;10990;48.174;9.782;2023-01-29T03:31:27;21.00;;;10.40;;
21657;SDS011;10990;48.174;9.782;2023-01-29T03:34:13;19.27;;;9.30;;
21657;SDS011;10990;48.174;9.782;2023-01-29T03:36:49;15.90;;;8.83;;
21657;SDS011;10990;48.174;9.782;2023-01-29T03:39:20;15.80;;;8.77;;
21657;SDS011;10990;48.174;9.782;2023-01-29T03:41:52;16.10;;;8.50;;
21657;SDS011;10990;48.174;9.782;2023-01-29T03:44:24;14.50;;;8.13;;
21657;SDS011;10990;48.174;9.782;2023-01-29T03:47:02;15.93;;;8.47;;
21657;SDS011;10990;48.174;9.782;2023-01-29T03:49:42;15.83;;;8.97;;
21657;SDS011;10990;48.174;9.782;2023-01-29T03:52:20;15.77;;;8.40;;
21657;SDS011;10990;48.174;9.782;2023-01-29T03:54:57;15.80;;;8.67;;
21657;SDS011;10990;48.174;9.782;2023-01-29T03:57:33;16.57;;;9.23;;
21657;SDS011;10990;48.174;9.782;2023-01-29T04:00:08;16.40;;;8.57;;
21657;SDS011;10990;48.174;9.782;2023-01-29T04:02:45;15.17;;;8.17;;
21657;SDS011;10990;48.174;9.782;2023-01-29T04:05:17;17.57;;;9.07;;
21657;SDS011;10990;48.174;9.782;2023-01-29T04:08:06;16.07;;;8.60;;
21657;SDS011;10990;48.174;9.782;2023-01-29T04:10:38;16.93;;;8.50;;
21657;SDS011;10990;48.174;9.782;2023-01-29T04:13:08;14.80;;;8.40;;
21657;SDS011;10990;48.174;9.782;2023-01-29T04:15:44;16.33;;;8.97;;
21657;SDS011;10990;48.174;9.782;2023-01-29T04:18:20;16.97;;;8.70;;
21657;SDS011;10990;48.174;9.782;2023-01-29T04:21:01;15.43;;;8.30;;
21657;SDS011;10990;48.174;9.782;2023-01-29T04:23:31;18.20;;;8.97;;
21657;SDS011;10990;48.174;9.782;2023-01-29T04:26:02;15.43;;;8.33;;
21657;SDS011;10990;48.174;9.782;2023-01-29T04:28:50;16.00;;;8.40;;
21657;SDS011;10990;48.174;9.782;2023-01-29T04:31:31;15.17;;;8.50;;
21657;SDS011;10990;48.174;9.782;2023-01-29T04:34:08;16.33;;;8.57;;
21657;SDS011;10990;48.174;9.782;2023-01-29T04:36:45;16.87;;;9.23;;
21657;SDS011;10990;48.174;9.782;2023-01-29T04:39:23;17.20;;;9.20;;
21657;SDS011;10990;48.174;9.782;2023-01-29T04:41:54;17.40;;;8.67;;
21657;SDS011;10990;48.174;9.782;2023-01-29T04:44:31;15.37;;;8.23;;
21657;SDS011;10990;48.174;9.782;2023-01-29T04:47:03;17.60;;;9.20;;
21657;SDS011;10990;48.174;9.782;2023-01-29T04:49:41;16.60;;;9.20;;
21657;SDS011;10990;48.174;9.782;2023-01-29T04:52:14;15.83;;;8.70;;
21657;SDS011;10990;48.174;9.782;2023-01-29T04:54:50;18.57;;;9.50;;
21657;SDS011;10990;48.174;9.782;2023-01-29T04:57:27;17.17;;;9.37;;
21657;SDS011;10990;48.174;9.782;2023-01-29T05:00:01;16.67;;;8.40;;
21657;SDS011;10990;48.174;9.782;2023-01-29T05:02:33;17.17;;;9.30;;
21657;SDS011;10990;48.174;9.782;2023-01-29T05:05:05;19.73;;;9.83;;
21657;SDS011;10990;48.174;9.782;2023-01-29T05:07:34;17.83;;;9.53;;
21657;SDS011;10990;48.174;9.782;2023-01-29T05:10:04;19.17;;;9.43;;
21657;SDS011;10990;48.174;9.782;2023-01-29T05:12:32;16.97;;;8.67;;
21657;SDS011;10990;48.174;9.782;2023-01-29T05:15:01;19.77;;;9.73;;
21657;SDS011;10990;48.174;9.782;2023-01-29T05:17:29;17.40;;;9.37;;
21657;SDS011;10990;48.174;9.782;2023-01-29T05:19:56;16.70;;;9.40;;
21657;SDS011;10990;48.174;9.782;2023-01-29T05:22:25;19.47;;;9.70;;
21657;SDS011;10990;48.174;9.782;2023-01-29T05:24:52;15.73;;;9.33;;
21657;SDS011;10990;48.174;9.782;2023-01-29T05:27:20;16.03;;;8.77;;
21657;SDS011;10990;48.174;9.782;2023-01-29T05:30:07;15.47;;;8.60;;
21657;SDS011;10990;48.174;9.782;2023-01-29T05:32:34;16.63;;;8.93;;
21657;SDS011;10990;48.174;9.782;2023-01-29T05:35:01;18.43;;;9.57;;
21657;SDS011;10990;48.174;9.782;2023-01-29T05:37:29;17.37;;;9.53;;
21657;SDS011;10990;48.174;9.782;2023-01-29T05:39:56;16.40;;;9.07;;
21657;SDS011;10990;48.174;9.782;2023-01-29T05:42:23;18.40;;;9.07;;
21657;SDS011;10990;48.174;9.782;2023-01-29T05:44:49;16.40;;;9.20;;
21657;SDS011;10990;48.174;9.782;2023-01-29T05:47:17;17.63;;;8.90;;
21657;SDS011;10990;48.174;9.782;2023-01-29T05:49:44;21.80;;;10.33;;
21657;SDS011;10990;48.174;9.782;2023-01-29T05:52:11;19.40;;;9.97;;
21657;SDS011;10990;48.174;9.782;2023-01-29T05:54:39;18.40;;;9.93;;
21657;SDS011;10990;48.174;9.782;2023-01-29T05:57:06;15.97;;;8.63;;
21657;SDS011;10990;48.174;9.782;2023-01-29T05:59:32;15.60;;;7.40;;
21657;SDS011;10990;48.174;9.782;2023-01-29T06:01:59;16.37;;;8.43;;
21657;SDS011;10990;48.174;9.782;2023-01-29T06:04:26;18.80;;;9.67;;
21657;SDS011;10990;48.174;9.782;2023-01-29T06:06:52;18.20;;;9.77;;
21657;SDS011;10990;48.174;9.782;2023-01-29T06:09:19;20.43;;;10.40;;
21657;SDS011;10990;48.174;9.782;2023-01-29T06:11:47;18.20;;;9.40;;
21657;SDS011;10990;48.174;9.782;2023-01-29T06:14:14;15.63;;;8.70;;
21657;SDS011;10990;48.174;9.782;2023-01-29T06:16:41;19.83;;;10.17;;
21657;SDS011;10990;48.174;9.782;2023-01-29T06:19:07;16.50;;;8.60;;
21657;SDS011;10990;48.174;9.782;2023-01-29T06:21:34;18.33;;;9.77;;
21657;SDS011;10990;48.174;9.782;2023-01-29T06:24:00;31.23;;;13.83;;
21657;SDS011;10990;48.174;9.782;2023-01-29T06:26:27;28.13;;;13.50;;
21657;SDS011;10990;48.174;9.782;2023-01-29T06:28:55;20.63;;;10.73;;
21657;SDS011;10990;48.174;9.782;2023-01-29T06:31:22;23.23;;;11.93;;
21657;SDS011;10990;48.174;9.782;2023-01-29T06:33:49;15.80;;;8.70;;
21657;SDS011;10990;48.174;9.782;2023-01-29T06:36:15;17.20;;;9.07;;
21657;SDS011;10990;48.174;9.782;2023-01-29T06:38:42;14.77;;;8.27;;
21657;SDS011;10990;48.174;9.782;2023-01-29T06:41:09;15.20;;;8.27;;
21657;SDS011;10990;48.174;9.782;2023-01-29T06:43:36;17.10;;;8.93;;
21657;SDS011;10990;48.174;9.782;2023-01-29T06:46:05;17.67;;;9.90;;
21657;SDS011;10990;48.174;9.782;2023-01-29T06:48:33;18.83;;;9.47;;
21657;SDS011;10990;48.174;9.782;2023-01-29T06:51:00;18.67;;;10.47;;
21657;SDS011;10990;48.174;9.782;2023-01-29T06:53:28;15.53;;;8.40;;
21657;SDS011;10990;48.174;9.782;2023-01-29T06:55:55;16.07;;;8.53;;
21657;SDS011;10990;48.174;9.782;2023-01-29T06:58:22;17.33;;;8.70;;
21657;SDS011;10990;48.174;9.782;2023-01-29T07:00:49;17.23;;;8.77;;
21657;SDS011;10990;48.174;9.782;2023-01-29T07:03:17;17.57;;;9.40;;
21657;SDS011;10990;48.174;9.782;2023-01-29T07:05:48;18.50;;;9.73;;
21657;SDS011;10990;48.174;9.782;2023-01-29T07:08:16;22.23;;;10.33;;
21657;SDS011;10990;48.174;9.782;2023-01-29T07:10:42;20.63;;;11.30;;
21657;SDS011;10990;48.174;9.782;2023-01-29T07:13:09;20.83;;;11.03;;
21657;SDS011;10990;48.174;9.782;2023-01-29T07:15:36;19.70;;;10.93;;
21657;SDS011;10990;48.174;9.782;2023-01-29T07:18:03;21.40;;;10.77;;
21657;SDS011;10990;48.174;9.782;2023-01-29T07:20:37;19.43;;;9.67;;
21657;SDS011;10990;48.174;9.782;2023-01-29T07:23:05;19.87;;;10.27;;
21657;SDS011;10990;48.174;9.782;2023-01-29T07:25:34;18.73;;;10.57;;
21657;SDS011;10990;48.174;9.782;2023-01-29T07:28:00;20.13;;;10.43;;
21657;SDS011;10990;48.174;9.782;2023-01-29T07:30:27;20.33;;;10.80;;
21657;SDS011;10990;48.174;9.782;2023-01-29T07:32:54;20.47;;;10.80;;
21657;SDS011;10990;48.174;9.782;2023-01-29T07:35:21;16.23;;;9.40;;
21657;SDS011;10990;48.174;9.782;2023-01-29T07:37:49;19.50;;;10.70;;
21657;SDS011;10990;48.174;9.782;2023-01-29T07:40:16;21.40;;;10.90;;
21657;SDS011;10990;48.174;9.782;2023-01-29T07:42:43;19.67;;;10.87;;
21657;SDS011;10990;48.174;9.782;2023-01-29T07:45:10;16.83;;;9.73;;
21657;SDS011;10990;48.174;9.782;2023-01-29T07:47:37;16.80;;;9.70;;
21657;SDS011;10990;48.174;9.782;2023-01-29T07:50:04;15.00;;;8.20;;
21657;SDS011;10990;48.174;9.782;2023-01-29T07:52:32;15.43;;;8.77;;
21657;SDS011;10990;48.174;9.782;2023-01-29T07:55:00;17.20;;;10.07;;
21657;SDS011;10990;48.174;9.782;2023-01-29T07:57:27;14.93;;;8.77;;
21657;SDS011;10990;48.174;9.782;2023-01-29T07:59:54;17.37;;;8.97;;
21657;SDS011;10990;48.174;9.782;2023-01-29T08:02:21;16.20;;;9.10;;
21657;SDS011;10990;48.174;9.782;2023-01-29T08:04:48;14.47;;;8.13;;
21657;SDS011;10990;48.174;9.782;2023-01-29T08:07:14;14.30;;;7.83;;
21657;SDS011;10990;48.174;9.782;2023-01-29T08:09:41;15.10;;;8.50;;
21657;SDS011;10990;48.174;9.782;2023-01-29T08:12:09;12.23;;;7.10;;
21657;SDS011;10990;48.174;9.782;2023-01-29T08:14:36;15.00;;;8.33;;
21657;SDS011;10990;48.174;9.782;2023-01-29T08:17:02;15.13;;;8.13;;
21657;SDS011;10990;48.174;9.782;2023-01-29T08:19:29;14.70;;;8.20;;
21657;SDS011;10990;48.174;9.782;2023-01-29T08:21:56;12.20;;;7.30;;
21657;SDS011;10990;48.174;9.782;2023-01-29T08:24:22;13.73;;;7.30;;
21657;SDS011;10990;48.174;9.782;2023-01-29T08:26:49;11.57;;;6.93;;
21657;SDS011;10990;48.174;9.782;2023-01-29T08:29:18;11.23;;;6.43;;
21657;SDS011;10990;48.174;9.782;2023-01-29T08:31:44;11.40;;;6.53;;
21657;SDS011;10990;48.174;9.782;2023-01-29T08:34:11;11.80;;;6.90;;
21657;SDS011;10990;48.174;9.782;2023-01-29T08:36:38;15.47;;;8.00;;
21657;SDS011;10990;48.174;9.782;2023-01-29T08:39:05;14.10;;;8.10;;
21657;SDS011;10990;48.174;9.782;2023-01-29T08:41:31;13.03;;;7.33;;
21657;SDS011;10990;48.174;9.782;2023-01-29T08:43:58;12.50;;;7.10;;
21657;SDS011;10990;48.174;9.782;2023-01-29T08:46:27;13.93;;;8.03;;
21657;SDS011;10990;48.174;9.782;2023-01-29T08:48:54;10.30;;;6.07;;
21657;SDS011;10990;48.174;9.782;2023-01-29T08:51:21;10.97;;;6.50;;
21657;SDS011;10990;48.174;9.782;2023-01-29T08:53:50;13.20;;;7.43;;
21657;SDS011;10990;48.174;9.782;2023-01-29T08:56:16;16.60;;;9.43;;
21657;SDS011;10990;48.174;9.782;2023-01-29T08:58:43;15.97;;;8.47;;
21657;SDS011;10990;48.174;9.782;2023-01-29T09:01:10;16.67;;;9.37;;
21657;SDS011;10990;48.174;9.782;2023-01-29T09:03:39;16.47;;;9.10;;
21657;SDS011;10990;48.174;9.782;2023-01-29T09:06:08;14.30;;;7.77;;
21657;SDS011;10990;48.174;9.782;2023-01-29T09:08:36;16.30;;;9.57;;
21657;SDS011;10990;48.174;9.782;2023-01-29T09:11:03;14.63;;;8.60;;
21657;SDS011;10990;48.174;9.782;2023-01-29T09:13:30;15.23;;;8.70;;
21657;SDS011;10990;48.174;9.782;2023-01-29T09:15:57;19.63;;;9.93;;
21657;SDS011;10990;48.174;9.782;2023-01-29T09:18:25;19.10;;;9.77;;
21657;SDS011;10990;48.174;9.782;2023-01-29T09:20:53;15.57;;;8.43;;
21657;SDS011;10990;48.174;9.782;2023-01-29T09:23:20;16.13;;;8.83;;
21657;SDS011;10990;48.174;9.782;2023-01-29T09:25:46;14.23;;;8.33;;
21657;SDS011;10990;48.174;9.782;2023-01-29T09:28:13;17.90;;;9.37;;
21657;SDS011;10990;48.174;9.782;2023-01-29T09:30:41;17.53;;;9.87;;
21657;SDS011;10990;48.174;9.782;2023-01-29T09:33:08;14.83;;;8.10;;
21657;SDS011;10990;48.174;9.782;2023-01-29T09:35:35;13.47;;;7.20;;
21657;SDS011;10990;48.174;9.782;2023-01-29T09:38:03;16.63;;;8.20;;
21657;SDS011;10990;48.174;9.782;2023-01-29T09:40:31;13.30;;;7.17;;
21657;SDS011;10990;48.174;9.782;2023-01-29T09:43:05;12.27;;;7.23;;
21657;SDS011;10990;48.174;9.782;2023-01-29T09:45:39;13.83;;;7.67;;
21657;SDS011;10990;48.174;9.782;2023-01-29T09:48:10;12.67;;;7.87;;
21657;SDS011;10990;48.174;9.782;2023-01-29T09:50:39;15.53;;;8.20;;
21657;SDS011;10990;48.174;9.782;2023-01-29T09:53:13;13.37;;;7.60;;
21657;SDS011;10990;48.174;9.782;2023-01-29T09:55:45;13.23;;;7.70;;
21657;SDS011;10990;48.174;9.782;2023-01-29T09:58:17;13.90;;;8.30;;
21657;SDS011;10990;48.174;9.782;2023-01-29T10:00:50;13.13;;;8.23;;
21657;SDS011;10990;48.174;9.782;2023-01-29T10:03:27;14.30;;;8.03;;
21657;SDS011;10990;48.174;9.782;2023-01-29T10:06:09;14.10;;;7.83;;
21657;SDS011;10990;48.174;9.782;2023-01-29T10:08:55;12.30;;;7.73;;
21657;SDS011;10990;48.174;9.782;2023-01-29T10:11:45;13.37;;;8.17;;
21657;SDS011;10990;48.174;9.782;2023-01-29T10:14:22;13.93;;;8.03;;
21657;SDS011;10990;48.174;9.782;2023-01-29T10:16:59;13.27;;;8.17;;
21657;SDS011;10990;48.174;9.782;2023-01-29T10:19:46;13.93;;;8.17;;
21657;SDS011;10990;48.174;9.782;2023-01-29T10:22:26;11.93;;;7.27;;
21657;SDS011;10990;48.174;9.782;2023-01-29T10:25:17;14.40;;;7.87;;
21657;SDS011;10990;48.174;9.782;2023-01-29T10:27:46;12.77;;;7.40;;
21657;SDS011;10990;48.174;9.782;2023-01-29T10:30:19;16.70;;;9.10;;
21657;SDS011;10990;48.174;9.782;2023-01-29T10:32:52;13.67;;;7.83;;
21657;SDS011;10990;48.174;9.782;2023-01-29T10:35:21;14.73;;;8.20;;
21657;SDS011;10990;48.174;9.782;2023-01-29T10:37:51;14.50;;;8.07;;
21657;SDS011;10990;48.174;9.782;2023-01-29T10:40:21;20.13;;;12.17;;
21657;SDS011;10990;48.174;9.782;2023-01-29T10:42:52;15.00;;;8.90;;
21657;SDS011;10990;48.174;9.782;2023-01-29T10:45:29;17.67;;;8.97;;
21657;SDS011;10990;48.174;9.782;2023-01-29T10:48:12;14.27;;;8.23;;
21657;SDS011;10990;48.174;9.782;2023-01-29T10:51:00;16.30;;;8.70;;
21657;SDS011;10990;48.174;9.782;2023-01-29T10:53:44;14.13;;;7.90;;
21657;SDS011;10990;48.174;9.782;2023-01-29T10:56:26;14.30;;;8.37;;
21657;SDS011;10990;48.174;9.782;2023-01-29T10:59:03;15.20;;;8.07;;
21657;SDS011;10990;48.174;9.782;2023-01-29T11:01:35;14.47;;;8.10;;
21657;SDS011;10990;48.174;9.782;2023-01-29T11:04:02;15.27;;;8.23;;
21657;SDS011;10990;48.174;9.782;2023-01-29T11:06:32;15.37;;;8.77;;
21657;SDS011;10990;48.174;9.782;2023-01-29T11:09:01;15.33;;;8.33;;
21657;SDS011;10990;48.174;9.782;2023-01-29T11:11:38;15.13;;;8.90;;
21657;SDS011;10990;48.174;9.782;2023-01-29T11:14:09;16.10;;;9.17;;
21657;SDS011;10990;48.174;9.782;2023-01-29T11:16:39;18.47;;;9.70;;
21657;SDS011;10990;48.174;9.782;2023-01-29T11:19:08;16.27;;;9.30;;
21657;SDS011;10990;48.174;9.782;2023-01-29T11:21:48;16.30;;;9.33;;
21657;SDS011;10990;48.174;9.782;2023-01-29T11:24:17;18.10;;;10.13;;
21657;SDS011;10990;48.174;9.782;2023-01-29T11:26:46;17.07;;;8.97;;
21657;SDS011;10990;48.174;9.782;2023-01-29T11:29:36;18.00;;;9.30;;
21657;SDS011;10990;48.174;9.782;2023-01-29T11:32:04;14.00;;;8.17;;
21657;SDS011;10990;48.174;9.782;2023-01-29T11:34:33;13.60;;;8.53;;
21657;SDS011;10990;48.174;9.782;2023-01-29T11:37:01;15.50;;;8.67;;
21657;SDS011;10990;48.174;9.782;2023-01-29T11:39:30;18.33;;;10.63;;
21657;SDS011;10990;48.174;9.782;2023-01-29T11:41:59;16.47;;;9.60;;
21657;SDS011;10990;48.174;9.782;2023-01-29T11:44:29;15.83;;;8.83;;
21657;SDS011;10990;48.174;9.782;2023-01-29T11:46:58;14.70;;;8.73;;
21657;SDS011;10990;48.174;9.782;2023-01-29T11:49:36;13.73;;;8.03;;
21657;SDS011;10990;48.174;9.782;2023-01-29T11:52:06;14.10;;;8.40;;
21657;SDS011;10990;48.174;9.782;2023-01-29T11:54:36;14.27;;;8.37;;
21657;SDS011;10990;48.174;9.782;2023-01-29T11:57:12;16.27;;;9.37;;
21657;SDS011;10990;48.174;9.782;2023-01-29T11:59:48;15.68;;;9.55;;
21657;SDS011;10990;48.174;9.782;2023-01-29T12:02:22;17.00;;;9.20;;
21657;SDS011;10990;48.174;9.782;2023-01-29T12:04:55;16.03;;;8.60;;
21657;SDS011;10990;48.174;9.782;2023-01-29T12:07:23;15.80;;;8.50;;
21657;SDS011;10990;48.174;9.782;2023-01-29T12:09:51;16.20;;;8.60;;
21657;SDS011;10990;48.174;9.782;2023-01-29T12:12:29;14.93;;;8.60;;
21657;SDS011;10990;48.174;9.782;2023-01-29T12:15:17;14.43;;;8.33;;
21657;SDS011;10990;48.174;9.782;2023-01-29T12:17:50;15.83;;;9.40;;
21657;SDS011;10990;48.174;9.782;2023-01-29T12:20:24;16.43;;;8.80;;
21657;SDS011;10990;48.174;9.782;2023-01-29T12:22:58;14.47;;;8.47;;
21657;SDS011;10990;48.174;9.782;2023-01-29T12:25:33;15.23;;;8.73;;
21657;SDS011;10990;48.174;9.782;2023-01-29T12:28:11;14.13;;;8.60;;
21657;SDS011;10990;48.174;9.782;2023-01-29T12:30:47;13.23;;;7.93;;
21657;SDS011;10990;48.174;9.782;2023-01-29T12:33:27;15.23;;;8.53;;
21657;SDS011;10990;48.174;9.782;2023-01-29T12:36:05;13.63;;;8.03;;
21657;SDS011;10990;48.174;9.782;2023-01-29T12:38:37;15.50;;;9.10;;
21657;SDS011;10990;48.174;9.782;2023-01-29T12:41:06;13.83;;;8.20;;
21657;SDS011;10990;48.174;9.782;2023-01-29T12:43:43;13.30;;;8.23;;
21657;SDS011;10990;48.174;9.782;2023-01-29T12:46:17;12.43;;;7.23;;
21657;SDS011;10990;48.174;9.782;2023-01-29T12:48:47;15.20;;;8.53;;
21657;SDS011;10990;48.174;9.782;2023-01-29T12:51:16;15.63;;;9.27;;
21657;SDS011;10990;48.174;9.782;2023-01-29T12:53:47;16.13;;;8.90;;
21657;SDS011;10990;48.174;9.782;2023-01-29T12:56:18;14.27;;;8.67;;
21657;SDS011;10990;48.174;9.782;2023-01-29T12:58:54;15.53;;;9.03;;
21657;SDS011;10990;48.174;9.782;2023-01-29T13:01:25;15.33;;;8.50;;
21657;SDS011;10990;48.174;9.782;2023-01-29T13:03:56;12.93;;;7.57;;
21657;SDS011;10990;48.174;9.782;2023-01-29T13:06:27;15.97;;;8.83;;
21657;SDS011;10990;48.174;9.782;2023-01-29T13:09:00;14.93;;;8.70;;
21657;SDS011;10990;48.174;9.782;2023-01-29T13:11:32;13.80;;;8.40;;
21657;SDS011;10990;48.174;9.782;2023-01-29T13:14:07;13.83;;;8.27;;
21657;SDS011;10990;48.174;9.782;2023-01-29T13:16:44;15.03;;;8.63;;
21657;SDS011;10990;48.174;9.782;2023-01-29T13:19:19;13.77;;;8.53;;
21657;SDS011;10990;48.174;9.782;2023-01-29T13:21:51;16.17;;;9.57;;
21657;SDS011;10990;48.174;9.782;2023-01-29T13:24:20;20.93;;;12.60;;
21657;SDS011;10990;48.174;9.782;2023-01-29T13:26:50;16.63;;;10.43;;
21657;SDS011;10990;48.174;9.782;2023-01-29T13:29:22;15.27;;;9.20;;
21657;SDS011;10990;48.174;9.782;2023-01-29T13:31:51;14.07;;;8.13;;
21657;SDS011;10990;48.174;9.782;2023-01-29T13:34:20;14.83;;;8.50;;
21657;SDS011;10990;48.174;9.782;2023-01-29T13:36:49;14.80;;;9.10;;
21657;SDS011;10990;48.174;9.782;2023-01-29T13:39:21;14.37;;;8.70;;
21657;SDS011;10990;48.174;9.782;2023-01-29T13:41:50;13.97;;;8.73;;
21657;SDS011;10990;48.174;9.782;2023-01-29T13:44:19;15.37;;;9.17;;
21657;SDS011;10990;48.174;9.782;2023-01-29T13:49:29;16.87;;;9.20;;
21657;SDS011;10990;48.174;9.782;2023-01-29T13:52:12;18.03;;;10.10;;
21657;SDS011;10990;48.174;9.782;2023-01-29T13:54:48;15.93;;;9.00;;
21657;SDS011;10990;48.174;9.782;2023-01-29T13:57:33;15.93;;;8.73;;
21657;SDS011;10990;48.174;9.782;2023-01-29T14:00:02;14.47;;;9.03;;
21657;SDS011;10990;48.174;9.782;2023-01-29T14:02:31;16.43;;;9.33;;
21657;SDS011;10990;48.174;9.782;2023-01-29T14:08:04;16.63;;;9.60;;
21657;SDS011;10990;48.174;9.782;2023-01-29T14:10:41;17.40;;;9.10;;
21657;SDS011;10990;48.174;9.782;2023-01-29T14:16:25;19.57;;;10.67;;
21657;SDS011;10990;48.174;9.782;2023-01-29T14:19:00;20.00;;;10.43;;
21657;SDS011;10990;48.174;9.782;2023-01-29T14:21:29;15.37;;;8.83;;
21657;SDS011;10990;48.174;9.782;2023-01-29T14:23:58;16.33;;;9.17;;
21657;SDS011;10990;48.174;9.782;2023-01-29T14:26:39;17.90;;;9.20;;
21657;SDS011;10990;48.174;9.782;2023-01-29T14:29:15;18.57;;;9.77;;
21657;SDS011;10990;48.174;9.782;2023-01-29T14:31:46;17.30;;;9.60;;
21657;SDS011;10990;48.174;9.782;2023-01-29T14:34:26;17.80;;;9.10;;
21657;SDS011;10990;48.174;9.782;2023-01-29T14:36:56;17.80;;;10.20;;
21657;SDS011;10990;48.174;9.782;2023-01-29T14:39:34;23.13;;;13.43;;
21657;SDS011;10990;48.174;9.782;2023-01-29T14:42:03;17.90;;;10.43;;
21657;SDS011;10990;48.174;9.782;2023-01-29T14:53:22;17.40;;;9.93;;
21657;SDS011;10990;48.174;9.782;2023-01-29T14:55:56;17.83;;;8.80;;
21657;SDS011;10990;48.174;9.782;2023-01-29T14:58:28;18.50;;;9.67;;
21657;SDS011;10990;48.174;9.782;2023-01-29T15:01:02;17.10;;;8.90;;
21657;SDS011;10990;48.174;9.782;2023-01-29T15:03:35;18.97;;;9.17;;
21657;SDS011;10990;48.174;9.782;2023-01-29T15:06:14;14.73;;;8.60;;
21657;SDS011;10990;48.174;9.782;2023-01-29T15:08:44;15.83;;;8.53;;
21657;SDS011;10990;48.174;9.782;2023-01-29T15:11:19;15.47;;;8.70;;
21657;SDS011;10990;48.174;9.782;2023-01-29T15:14:02;17.90;;;9.40;;